Aviation Digital Data Service (ADDS)

Output produced by METARs form (0300 UTC 22 April 2019)
found at http://www.aviationweather.gov/metar/data/
 
Forecast for: YBCS (CAIRNS AIRPORT , AU)
Text: TAF YBCS 212323Z 2200/2224 13010KT 9999 FEW035
Forecast period: 0000 to 0200 UTC 22 April 2019
Forecast type: FROM: standard forecast or significant change
Winds: from the SE (130 degrees) at 12 MPH (10 knots; 5.1 m/s)
Visibility: 6 or more miles 10+ km)
Ceiling: at least 12,000 feet AGL
Clouds: few clouds at 3500 feet AGL
Weather: no significant weather forecast for this period
Text: FM220200 12013KT 9999 FEW040
Forecast period: 0200 to 0800 UTC 22 April 2019
Forecast type: FROM: standard forecast or significant change
Winds: from the ESE (120 degrees) at 15 MPH (13 knots; 6.7 m/s)
Visibility: 6 or more miles 10+ km)
Ceiling: at least 12,000 feet AGL
Clouds: few clouds at 4000 feet AGL
Weather: no significant weather forecast for this period
Text: FM220800 15008KT 9999 SCT022 SCT040
Forecast period: 0800 UTC 22 April 2019 to 0000 UTC 23 April 2019
Forecast type: FROM: standard forecast or significant change
Winds: from the SSE (150 degrees) at 9 MPH (8 knots; 4.1 m/s)
Visibility: 6 or more miles 10+ km)
Ceiling: at least 12,000 feet AGL
Clouds: scattered clouds at 2200 feet AGL
scattered clouds at 4000 feet AGL
Weather: no significant weather forecast for this period